Time;durP1;ratioP1;P1;durP2;ratioP2;P2;SDS_P1;SDS_P2;PMS_P1;PMS_P2;Temp;Humidity;BMP_temperature;BMP_pressure;BME280_temperature;BME280_humidity;BME280_pressure;Samples;Min_cycle;Max_cycle;Signal;HPM_P1;HPM_P2
2023/05/12 00:01:15;;;;;;;4.68;4.38;;;;;;;11.66;100.00;101761.97;6221877;22;20102;-84
2023/05/12 00:03:42;;;;;;;4.57;4.22;;;;;;;11.66;100.00;101759.31;6248021;22;20028;-84
2023/05/12 00:06:10;;;;;;;4.93;4.43;;;;;;;11.63;100.00;101757.47;6249175;22;20020;-84
2023/05/12 00:08:36;;;;;;;4.60;4.15;;;;;;;11.61;100.00;101770.50;6249875;22;20013;-83
2023/05/12 00:11:03;;;;;;;4.82;4.43;;;;;;;11.57;100.00;101764.53;6221583;22;20566;-84
2023/05/12 00:13:30;;;;;;;7.65;5.00;;;;;;;11.56;100.00;101760.34;6249199;22;20068;-83
2023/05/12 00:15:57;;;;;;;4.70;4.28;;;;;;;11.53;100.00;101755.88;6247237;22;20020;-83
2023/05/12 00:18:27;;;;;;;5.15;4.30;;;;;;;11.51;100.00;101752.88;6249423;22;20461;-83
2023/05/12 00:20:54;;;;;;;4.65;4.25;;;;;;;11.50;100.00;101755.97;6247161;22;20016;-83
2023/05/12 00:23:21;;;;;;;4.65;4.25;;;;;;;11.48;100.00;101755.63;6249591;22;20027;-84
2023/05/12 00:25:48;;;;;;;5.07;4.40;;;;;;;11.45;100.00;101749.22;6247573;22;20437;-84
2023/05/12 00:28:16;;;;;;;5.55;4.95;;;;;;;11.45;100.00;101756.47;6248735;22;20459;-84
2023/05/12 00:30:43;;;;;;;5.18;4.68;;;;;;;11.43;100.00;101740.88;6247728;22;20449;-83
2023/05/12 00:33:09;;;;;;;4.97;4.47;;;;;;;11.39;100.00;101748.22;6249222;22;20021;-83
2023/05/12 00:35:36;;;;;;;4.50;4.20;;;;;;;11.40;100.00;101743.66;6249673;22;20099;-83
2023/05/12 00:38:03;;;;;;;4.47;4.07;;;;;;;11.38;100.00;101740.66;6249002;22;20027;-84
2023/05/12 00:40:29;;;;;;;4.25;3.88;;;;;;;11.36;100.00;101741.06;6248307;22;20041;-83
2023/05/12 00:42:56;;;;;;;3.80;3.50;;;;;;;11.33;100.00;101736.56;6249019;22;20072;-83
2023/05/12 00:45:23;;;;;;;4.47;3.92;;;;;;;11.31;100.00;101734.31;6249528;22;20017;-83
2023/05/12 00:47:51;;;;;;;4.03;3.70;;;;;;;11.29;100.00;101730.59;6221914;22;20047;-82
2023/05/12 00:50:17;;;;;;;3.70;3.50;;;;;;;11.28;100.00;101742.41;6249211;22;20087;-84
2023/05/12 00:52:46;;;;;;;4.80;4.40;;;;;;;11.29;100.00;101739.31;6247367;22;20426;-84
2023/05/12 00:55:12;;;;;;;4.93;4.38;;;;;;;11.28;100.00;101735.16;6248430;22;20505;-84
2023/05/12 00:57:40;;;;;;;4.28;3.97;;;;;;;11.28;100.00;101737.09;6248795;22;20024;-84
2023/05/12 01:00:07;;;;;;;4.82;4.47;;;;;;;11.25;100.00;101733.34;6249141;22;20431;-84
2023/05/12 01:02:36;;;;;;;4.32;4.03;;;;;;;11.25;100.00;101728.00;6222835;22;20083;-84
2023/05/12 01:05:03;;;;;;;4.05;3.75;;;;;;;11.24;100.00;101729.16;6247278;22;20299;-85
2023/05/12 01:07:31;;;;;;;4.43;4.07;;;;;;;11.25;100.00;101725.34;6247824;22;20458;-86
2023/05/12 01:09:59;;;;;;;31.17;4.68;;;;;;;11.23;100.00;101722.34;6246255;22;20509;-86
2023/05/12 01:12:31;;;;;;;3.90;3.60;;;;;;;11.20;100.00;101725.09;6222923;22;20028;-86
2023/05/12 01:14:58;;;;;;;3.92;3.67;;;;;;;11.18;100.00;101711.47;6246734;22;20532;-85
2023/05/12 01:17:34;;;;;;;3.70;3.42;;;;;;;11.17;100.00;101715.31;6249492;22;20040;-85
2023/05/12 01:20:06;;;;;;;3.72;3.50;;;;;;;11.17;100.00;101707.31;6246999;22;20021;-84
2023/05/12 01:22:34;;;;;;;3.70;3.40;;;;;;;11.16;100.00;101711.88;6249786;22;20013;-84
2023/05/12 01:25:04;;;;;;;3.88;3.67;;;;;;;11.16;100.00;101705.81;6245465;22;20565;-85
2023/05/12 01:27:32;;;;;;;4.32;4.03;;;;;;;11.15;100.00;101705.06;6249424;22;20043;-85
2023/05/12 01:30:01;;;;;;;3.70;3.40;;;;;;;11.14;100.00;101700.91;6247231;22;20013;-86
2023/05/12 01:32:31;;;;;;;4.25;3.92;;;;;;;11.12;100.00;101697.16;6247238;22;20103;-86
2023/05/12 01:34:58;;;;;;;4.75;3.92;;;;;;;11.11;100.00;101707.06;6246254;22;20025;-85
2023/05/12 01:37:25;;;;;;;4.18;3.88;;;;;;;11.12;100.00;101700.56;6222499;22;20021;-85
2023/05/12 01:39:53;;;;;;;5.07;4.30;;;;;;;11.11;100.00;101699.06;6246338;22;20017;-87
2023/05/12 01:42:20;;;;;;;4.28;3.92;;;;;;;11.13;100.00;101703.97;6221851;22;20044;-86
2023/05/12 01:44:47;;;;;;;6.07;3.78;;;;;;;11.13;100.00;101704.72;6246832;22;20044;-85
2023/05/12 01:47:14;;;;;;;3.92;3.72;;;;;;;11.11;100.00;101703.66;6246867;22;20465;-85
2023/05/12 01:49:47;;;;;;;3.90;3.60;;;;;;;11.09;100.00;101705.97;6246429;22;20615;-85
2023/05/12 01:52:15;;;;;;;3.63;3.33;;;;;;;11.09;100.00;101704.06;6223307;22;20028;-84
2023/05/12 01:54:41;;;;;;;4.22;3.85;;;;;;;11.10;100.00;101708.22;6249527;22;20052;-84
2023/05/12 01:57:09;;;;;;;3.45;3.25;;;;;;;11.10;100.00;101716.22;6247835;22;20165;-84
2023/05/12 01:59:37;;;;;;;3.80;3.50;;;;;;;11.11;100.00;101712.41;6248497;22;20095;-84
2023/05/12 02:02:05;;;;;;;3.55;3.35;;;;;;;11.12;100.00;101710.47;6247522;22;20025;-84
2023/05/12 02:04:33;;;;;;;3.53;3.22;;;;;;;11.12;100.00;101711.22;6248672;22;20031;-84
2023/05/12 02:07:00;;;;;;;3.50;3.30;;;;;;;11.13;100.00;101711.97;6247527;22;20021;-83
2023/05/12 02:09:27;;;;;;;3.30;3.10;;;;;;;11.12;100.00;101708.56;6247934;22;20024;-84
2023/05/12 02:11:58;;;;;;;2.70;2.50;;;;;;;11.12;100.00;101707.81;6247772;22;20107;-84
2023/05/12 02:14:25;;;;;;;3.03;2.83;;;;;;;11.11;100.00;101711.66;6250186;22;20239;-83
2023/05/12 02:16:54;;;;;;;4.88;3.10;;;;;;;11.10;100.00;101702.91;6248002;22;20017;-84
2023/05/12 02:19:22;;;;;;;3.10;2.90;;;;;;;11.11;100.00;101696.41;6250002;22;20013;-84
2023/05/12 02:21:49;;;;;;;3.20;3.00;;;;;;;11.11;100.00;101699.06;6248232;22;20021;-84
2023/05/12 02:24:15;;;;;;;3.55;3.25;;;;;;;11.10;100.00;101697.56;6247258;22;20445;-85
2023/05/12 02:26:43;;;;;;;3.03;2.83;;;;;;;11.11;100.00;101700.97;6248357;22;20029;-84
2023/05/12 02:29:11;;;;;;;2.67;2.50;;;;;;;11.12;100.00;101699.81;6247531;22;20024;-85
2023/05/12 02:31:38;;;;;;;3.00;2.80;;;;;;;11.12;100.00;101705.16;6248664;22;20047;-84
2023/05/12 02:34:14;;;;;;;2.88;2.67;;;;;;;11.08;100.00;101697.25;6248126;22;20380;-84
2023/05/12 02:36:40;;;;;;;2.60;2.50;;;;;;;11.08;100.00;101693.81;6247872;22;20021;-84
2023/05/12 02:39:07;;;;;;;3.92;2.65;;;;;;;11.08;100.00;101696.50;6247995;22;20027;-84
2023/05/12 02:41:34;;;;;;;2.75;2.55;;;;;;;11.08;100.00;101697.25;6248799;22;20497;-84
2023/05/12 02:44:01;;;;;;;3.15;2.90;;;;;;;11.08;100.00;101688.50;6249395;22;20447;-83
2023/05/12 02:46:27;;;;;;;3.40;3.13;;;;;;;11.06;100.00;101686.25;6248341;22;20016;-83
2023/05/12 02:48:54;;;;;;;3.95;3.20;;;;;;;11.05;100.00;101687.41;6222721;22;20020;-83
2023/05/12 02:51:21;;;;;;;3.22;3.03;;;;;;;11.05;100.00;101684.75;6249413;22;20697;-82
2023/05/12 02:53:48;;;;;;;3.78;3.35;;;;;;;11.06;100.00;101685.50;6247771;22;20016;-85
2023/05/12 02:56:16;;;;;;;3.35;3.15;;;;;;;11.06;100.00;101690.84;6247667;22;20091;-81
2023/05/12 02:58:42;;;;;;;3.95;3.65;;;;;;;11.04;100.00;101688.59;6247842;22;20092;-81
2023/05/12 03:01:10;;;;;;;4.88;4.13;;;;;;;11.05;100.00;101686.66;6249532;22;20080;-81
2023/05/12 03:03:39;;;;;;;3.83;3.47;;;;;;;11.05;100.00;101681.34;6247635;22;20115;-82
2023/05/12 03:06:06;;;;;;;4.18;3.78;;;;;;;11.02;100.00;101683.66;6246671;22;20092;-81
2023/05/12 03:08:33;;;;;;;5.30;4.75;;;;;;;11.02;100.00;101690.91;6222848;22;20425;-81
2023/05/12 03:11:00;;;;;;;5.50;4.10;;;;;;;11.02;100.00;101690.91;6247176;22;20021;-81
2023/05/12 03:13:27;;;;;;;5.82;4.68;;;;;;;11.03;100.00;101684.41;6250188;22;20013;-81
2023/05/12 03:15:54;;;;;;;5.28;4.82;;;;;;;11.00;100.00;101686.00;6247795;22;20469;-83
2023/05/12 03:18:21;;;;;;;5.00;4.55;;;;;;;10.98;100.00;101677.69;6249774;22;20017;-81
2023/05/12 03:20:49;;;;;;;5.82;5.20;;;;;;;10.99;100.00;101684.50;6247248;22;20024;-81
2023/05/12 03:23:16;;;;;;;6.82;5.43;;;;;;;10.99;100.00;101681.09;6249573;22;20358;-81
2023/05/12 03:25:42;;;;;;;6.90;5.50;;;;;;;10.98;100.00;101675.03;6248281;22;20025;-81
2023/05/12 03:28:10;;;;;;;9.02;5.72;;;;;;;10.99;100.00;101681.09;6249072;22;20048;-81
2023/05/12 03:30:37;;;;;;;6.38;5.78;;;;;;;10.98;100.00;101675.03;6248106;22;20017;-81
2023/05/12 03:33:03;;;;;;;6.60;5.88;;;;;;;10.98;100.00;101671.59;6247238;22;20039;-81
2023/05/12 03:35:30;;;;;;;9.32;6.30;;;;;;;11.01;100.00;101676.09;6247243;22;20021;-82
2023/05/12 03:38:00;;;;;;;8.27;6.40;;;;;;;11.00;100.00;101675.34;6222195;22;20064;-81
2023/05/12 03:40:27;;;;;;;9.15;6.10;;;;;;;10.99;100.00;101671.19;6247672;22;20031;-82
2023/05/12 03:42:53;;;;;;;10.57;7.55;;;;;;;10.99;100.00;101673.09;6247425;22;20027;-81
2023/05/12 03:45:20;;;;;;;9.35;7.65;;;;;;;11.00;100.00;101666.59;6249804;22;20049;-82
2023/05/12 03:47:47;;;;;;;9.85;7.35;;;;;;;10.99;100.00;101668.53;6247765;22;20016;-82
2023/05/12 03:50:14;;;;;;;12.98;8.73;;;;;;;11.01;100.00;101660.13;6247039;22;20075;-81
2023/05/12 03:52:41;;;;;;;9.95;7.90;;;;;;;11.00;100.00;101675.34;6247950;22;20485;-82
2023/05/12 03:55:08;;;;;;;11.55;7.60;;;;;;;11.00;100.00;101680.69;6246963;22;20107;-83
2023/05/12 03:57:35;;;;;;;13.85;9.05;;;;;;;11.00;100.00;101672.69;6247286;22;20525;-82
2023/05/12 04:00:04;;;;;;;16.80;8.77;;;;;;;11.03;100.00;101673.75;6248815;22;20052;-81
2023/05/12 04:02:38;;;;;;;13.77;8.85;;;;;;;11.01;100.00;101668.84;6247934;22;20050;-81
2023/05/12 04:05:07;;;;;;;19.65;9.23;;;;;;;11.01;100.00;101658.19;6221098;22;20020;-82
2023/05/12 04:07:34;;;;;;;12.40;8.73;;;;;;;11.02;100.00;101665.03;6247603;22;20019;-82
2023/05/12 04:10:00;;;;;;;15.57;9.60;;;;;;;11.02;100.00;101665.03;6246947;22;20020;-81
2023/05/12 04:12:27;;;;;;;19.17;10.55;;;;;;;11.06;100.00;101666.84;6249465;22;20079;-81
2023/05/12 04:14:54;;;;;;;16.08;10.27;;;;;;;11.06;100.00;101669.50;6222186;22;20365;-81
2023/05/12 04:17:21;;;;;;;15.93;10.40;;;;;;;11.08;100.00;101667.94;6247520;22;20477;-81
2023/05/12 04:19:48;;;;;;;22.17;10.73;;;;;;;11.09;100.00;101671.34;6246823;22;20435;-81
2023/05/12 04:22:15;;;;;;;16.67;10.32;;;;;;;11.10;100.00;101678.91;6247234;22;20012;-81
2023/05/12 04:24:41;;;;;;;18.88;11.52;;;;;;;11.11;100.00;101671.66;6247870;22;20021;-82
2023/05/12 04:27:08;;;;;;;16.65;10.55;;;;;;;11.12;100.00;101673.91;6249054;22;20023;-82
2023/05/12 04:29:35;;;;;;;20.25;10.98;;;;;;;11.14;100.00;101676.91;6247542;22;20025;-81
2023/05/12 04:32:02;;;;;;;17.73;11.50;;;;;;;11.15;100.00;101678.41;6247002;22;20016;-82
2023/05/12 04:34:29;;;;;;;19.67;11.82;;;;;;;11.17;100.00;101688.66;6249165;22;20052;-81
2023/05/12 04:36:56;;;;;;;19.60;11.38;;;;;;;11.19;100.00;101680.97;6248852;22;20025;-81
2023/05/12 04:39:22;;;;;;;16.95;11.93;;;;;;;11.18;100.00;101688.22;6222444;22;20316;-81
2023/05/12 04:41:49;;;;;;;16.98;11.68;;;;;;;11.20;100.00;101685.13;6247199;22;20020;-81
2023/05/12 04:44:17;;;;;;;19.73;13.18;;;;;;;11.22;100.00;101683.53;6247154;22;20128;-82
2023/05/12 04:46:43;;;;;;;20.20;12.50;;;;;;;11.25;100.00;101685.34;6247219;22;20140;-81
2023/05/12 04:49:10;;;;;;;22.90;13.05;;;;;;;11.25;100.00;101692.59;6272112;22;20021;-82
2023/05/12 04:51:41;;;;;;;20.92;13.13;;;;;;;11.27;100.00;101684.94;6247822;22;20481;-82
2023/05/12 04:54:09;;;;;;;20.67;14.18;;;;;;;11.26;100.00;101692.19;6246780;22;20017;-81
2023/05/12 04:56:36;;;;;;;20.58;13.30;;;;;;;11.27;100.00;101690.28;6247693;22;20414;-82
2023/05/12 04:59:03;;;;;;;20.17;13.00;;;;;;;11.27;100.00;101700.94;6246808;22;20023;-81
2023/05/12 05:01:30;;;;;;;22.42;13.82;;;;;;;11.30;100.00;101702.75;6246773;22;20048;-82
2023/05/12 05:03:57;;;;;;;23.83;14.95;;;;;;;11.34;100.00;101701.50;6246664;22;20048;-81
2023/05/12 05:06:24;;;;;;;24.52;14.48;;;;;;;11.36;100.00;101709.06;6222156;22;20096;-82
2023/05/12 05:08:51;;;;;;;23.98;15.15;;;;;;;11.37;100.00;101713.25;6247028;22;20027;-81
2023/05/12 05:11:18;;;;;;;27.27;14.90;;;;;;;11.38;100.00;101717.41;6247656;22;20075;-81
2023/05/12 05:13:45;;;;;;;23.60;14.30;;;;;;;11.41;100.00;101731.81;6246692;22;20332;-81
2023/05/12 05:16:11;;;;;;;24.92;14.95;;;;;;;11.43;100.00;101724.16;6246222;22;20028;-81
2023/05/12 05:18:41;;;;;;;22.42;14.65;;;;;;;11.45;100.00;101732.47;6247468;22;20031;-81
2023/05/12 05:21:07;;;;;;;22.25;14.55;;;;;;;11.48;100.00;101734.28;6248318;22;20469;-81
2023/05/12 05:23:35;;;;;;;24.35;15.20;;;;;;;11.51;100.00;101738.78;6247398;22;20025;-81
2023/05/12 05:26:01;;;;;;;27.13;15.98;;;;;;;11.54;100.00;101735.28;6246155;22;20454;-80
2023/05/12 05:28:28;;;;;;;24.08;15.02;;;;;;;11.56;100.00;101732.94;6221927;22;20027;-81
2023/05/12 05:30:55;;;;;;;25.35;15.77;;;;;;;11.60;100.00;101734.31;6248330;22;20012;-81
2023/05/12 05:33:21;;;;;;;27.67;16.05;;;;;;;11.63;100.00;101735.41;6249124;22;20095;-81
2023/05/12 05:35:48;;;;;;;22.17;14.88;;;;;;;11.65;100.00;101733.81;6248572;22;20036;-81
2023/05/12 05:38:15;;;;;;;24.55;15.40;;;;;;;11.68;100.00;101735.63;6221854;22;20021;-82
2023/05/12 05:40:42;;;;;;;28.88;16.63;;;;;;;11.71;100.00;101728.72;6272832;22;20296;-84
2023/05/12 05:43:20;;;;;;;24.50;16.20;;;;;;;11.74;100.00;101733.19;6249594;22;20024;-84
2023/05/12 05:45:48;;;;;;;25.83;16.05;;;;;;;11.77;100.00;101736.97;6221011;22;20021;-84
2023/05/12 05:48:15;;;;;;;25.10;15.95;;;;;;;11.80;100.00;101733.47;6248891;22;20400;-83
2023/05/12 05:50:42;;;;;;;26.45;16.55;;;;;;;11.81;100.00;101738.38;6249153;22;20449;-84
2023/05/12 05:53:08;;;;;;;29.90;17.30;;;;;;;11.84;100.00;101747.44;6247868;22;20398;-83
2023/05/12 05:55:35;;;;;;;28.08;17.23;;;;;;;11.87;100.00;101741.28;6247052;22;20071;-84
2023/05/12 05:58:01;;;;;;;27.58;17.52;;;;;;;11.90;100.00;101749.19;6246781;22;20024;-83
2023/05/12 06:00:28;;;;;;;24.42;16.35;;;;;;;11.91;100.00;101761.34;6246894;22;20023;-84
2023/05/12 06:02:55;;;;;;;25.23;16.92;;;;;;;11.94;100.00;101760.50;6246963;22;20099;-83
2023/05/12 06:05:22;;;;;;;25.50;16.48;;;;;;;11.97;100.00;101754.31;6247320;22;20429;-82
2023/05/12 06:07:48;;;;;;;26.70;16.90;;;;;;;12.01;100.00;101757.63;6246691;22;20020;-84
2023/05/12 06:10:15;;;;;;;24.02;16.95;;;;;;;12.04;100.00;101761.34;6248762;22;20528;-84
2023/05/12 06:12:42;;;;;;;28.65;17.88;;;;;;;12.08;100.00;101763.94;6247240;22;20020;-83
2023/05/12 06:15:09;;;;;;;25.67;16.67;;;;;;;12.12;100.00;101768.00;6247728;22;20024;-83
2023/05/12 06:17:35;;;;;;;26.55;16.77;;;;;;;12.17;100.00;101770.13;6246957;22;20029;-83
2023/05/12 06:20:04;;;;;;;25.00;16.88;;;;;;;12.25;100.00;101765.34;6245984;22;20020;-84
2023/05/12 06:22:30;;;;;;;23.95;15.93;;;;;;;12.31;100.00;101774.31;6221903;22;20039;-84
2023/05/12 06:24:57;;;;;;;32.22;16.95;;;;;;;12.38;100.00;101778.72;6249095;22;20017;-83
2023/05/12 06:27:23;;;;;;;29.75;16.30;;;;;;;12.41;100.00;101773.25;6247768;22;20017;-83
2023/05/12 06:29:50;;;;;;;28.40;17.33;;;;;;;12.47;100.00;101781.47;6246632;22;20362;-82
2023/05/12 06:32:17;;;;;;;29.73;17.40;;;;;;;12.53;100.00;101787.78;6246533;22;20025;-81
2023/05/12 06:34:44;;;;;;;25.48;17.30;;;;;;;12.61;100.00;101781.06;6248213;22;20525;-83
2023/05/12 06:37:11;;;;;;;29.73;17.55;;;;;;;12.67;100.00;101790.78;6248051;22;20020;-84
2023/05/12 06:39:37;;;;;;;24.77;17.13;;;;;;;12.67;100.00;101790.03;6248760;22;20017;-82
2023/05/12 06:42:05;;;;;;;25.88;16.38;;;;;;;12.72;100.00;101792.19;6249216;22;20023;-83
2023/05/12 06:44:39;;;;;;;30.17;16.60;;;;;;;12.71;100.00;101796.03;6225317;22;20103;-84
2023/05/12 06:47:08;;;;;;;24.45;16.77;;;;;;;12.74;100.00;101799.78;6249215;22;20407;-82
2023/05/12 06:49:35;;;;;;;28.63;17.40;;;;;;;12.78;100.00;101800.41;6249256;22;20020;-86
2023/05/12 06:52:03;;;;;;;28.75;17.45;;;;;;;12.84;100.00;101807.44;6251051;22;20071;-85
2023/05/12 06:54:30;;;;;;;24.58;16.27;;;;;;;12.90;100.00;101811.06;6250457;22;20092;-86
2023/05/12 06:56:57;;;;;;;28.17;18.15;;;;;;;12.92;100.00;101811.38;6248803;22;20762;-81
2023/05/12 06:59:24;;;;;;;26.73;17.23;;;;;;;12.96;100.00;101814.69;6250589;22;20461;-82
2023/05/12 07:01:50;;;;;;;25.65;16.48;;;;;;;12.99;100.00;101818.44;6249527;22;20021;-82
2023/05/12 07:04:17;;;;;;;25.17;16.83;;;;;;;13.06;100.00;101812.13;6250566;22;20019;-84
2023/05/12 07:06:43;;;;;;;28.33;16.58;;;;;;;13.12;100.00;101813.09;6249339;22;20403;-78
2023/05/12 07:09:10;;;;;;;24.00;16.83;;;;;;;13.21;100.00;101821.94;6250555;22;20454;-78
2023/05/12 07:11:36;;;;;;;23.27;16.02;;;;;;;13.29;100.00;101820.53;6250815;22;20034;-80
2023/05/12 07:14:03;;;;;;;23.92;17.77;;;;;;;13.40;100.00;101820.19;6248305;22;20024;-79
2023/05/12 07:16:29;;;;;;;27.42;17.15;;;;;;;13.55;100.00;101817.81;6250858;22;20024;-81
2023/05/12 07:18:56;;;;;;;24.50;16.95;;;;;;;13.73;100.00;101822.53;6248913;22;20526;-78
2023/05/12 07:21:23;;;;;;;23.73;16.85;;;;;;;13.85;100.00;101821.75;6251111;22;20047;-78
2023/05/12 07:23:49;;;;;;;23.63;16.95;;;;;;;14.00;100.00;101831.50;6251042;22;20017;-78
2023/05/12 07:26:17;;;;;;;22.17;16.58;;;;;;;14.13;100.00;101828.75;6250441;22;20021;-80
2023/05/12 07:28:43;;;;;;;28.48;16.25;;;;;;;14.25;100.00;101832.56;6223056;22;20460;-79
2023/05/12 07:31:10;;;;;;;26.73;18.08;;;;;;;14.40;100.00;101840.81;6250615;22;20434;-79
2023/05/12 07:33:37;;;;;;;23.13;16.73;;;;;;;14.51;100.00;101830.47;6249104;22;20016;-79
2023/05/12 07:36:03;;;;;;;23.73;16.30;;;;;;;14.65;99.90;101836.06;6250238;22;20052;-80
2023/05/12 07:38:31;;;;;;;22.35;16.52;;;;;;;14.75;99.42;101842.19;6249093;22;20020;-79
2023/05/12 07:40:58;;;;;;;23.35;15.80;;;;;;;14.88;98.22;101836.72;6248406;22;20013;-80
2023/05/12 07:43:25;;;;;;;24.58;16.20;;;;;;;15.08;98.31;101833.66;6250951;22;20041;-79
2023/05/12 07:45:53;;;;;;;18.77;14.73;;;;;;;15.31;95.21;101835.75;6250878;22;20023;-78
2023/05/12 07:48:19;;;;;;;17.27;13.88;;;;;;;15.47;93.78;101830.13;6250126;22;20017;-79
2023/05/12 07:50:46;;;;;;;21.95;15.65;;;;;;;15.77;92.86;101833.13;6223848;22;20027;-78
2023/05/12 07:53:13;;;;;;;17.45;14.70;;;;;;;15.96;91.80;101840.72;6248521;22;20024;-79
2023/05/12 07:55:40;;;;;;;17.15;14.00;;;;;;;16.13;88.98;101843.81;6249554;22;20045;-78
2023/05/12 07:58:06;;;;;;;20.83;14.20;;;;;;;16.21;87.82;101847.69;6250426;22;20469;-80
2023/05/12 08:00:33;;;;;;;13.55;12.10;;;;;;;16.21;87.51;101850.38;6248978;22;20040;-76
2023/05/12 08:02:59;;;;;;;15.45;13.65;;;;;;;16.27;86.90;101848.56;6250194;22;20087;-77
2023/05/12 08:05:26;;;;;;;19.75;13.45;;;;;;;16.34;87.07;101850.19;6249069;22;20031;-78
2023/05/12 08:07:52;;;;;;;18.60;13.68;;;;;;;16.41;86.62;101847.16;6250544;22;20390;-80
2023/05/12 08:10:19;;;;;;;14.40;12.88;;;;;;;16.49;85.68;101848.31;6249701;22;20023;-77
2023/05/12 08:12:46;;;;;;;17.08;13.95;;;;;;;16.70;84.75;101846.66;6250718;22;20021;-78
2023/05/12 08:15:12;;;;;;;14.90;13.40;;;;;;;16.92;83.46;101851.75;6250359;22;20395;-76
2023/05/12 08:17:39;;;;;;;13.55;12.32;;;;;;;17.06;82.89;101850.34;6250502;22;20025;-78
2023/05/12 08:20:06;;;;;;;14.38;12.80;;;;;;;17.24;83.33;101855.59;6250532;22;20016;-79
2023/05/12 08:22:32;;;;;;;14.98;12.75;;;;;;;17.24;80.67;101850.97;6250812;22;20016;-79
2023/05/12 08:24:59;;;;;;;14.57;13.07;;;;;;;17.39;80.75;101858.34;6249607;22;20485;-80
2023/05/12 08:27:25;;;;;;;15.30;12.80;;;;;;;17.50;80.05;101851.25;6249039;22;20487;-79
2023/05/12 08:29:52;;;;;;;13.23;11.85;;;;;;;17.69;79.82;101857.22;6249082;22;20036;-79
2023/05/12 08:32:18;;;;;;;14.85;11.75;;;;;;;17.81;78.60;101860.88;6250266;22;20024;-84
2023/05/12 08:34:45;;;;;;;14.80;11.88;;;;;;;17.99;78.88;101863.41;6250828;22;20016;-80
2023/05/12 08:37:12;;;;;;;15.88;11.70;;;;;;;18.02;78.21;101862.47;6274105;22;20063;-80
2023/05/12 08:39:38;;;;;;;13.85;11.60;;;;;;;18.00;77.30;101862.94;6274034;22;20021;-79
2023/05/12 08:42:29;;;;;;;12.85;11.65;;;;;;;18.09;78.36;101870.19;6273848;22;20013;-79
2023/05/12 08:44:58;;;;;;;14.82;11.40;;;;;;;18.02;75.05;101870.56;6249998;22;20016;-79
2023/05/12 08:47:25;;;;;;;13.85;11.57;;;;;;;18.04;73.42;101878.16;6250262;22;20474;-80
2023/05/12 08:50:00;;;;;;;11.40;10.20;;;;;;;18.11;74.14;101881.25;6250477;22;20044;-82
2023/05/12 08:52:28;;;;;;;11.95;10.73;;;;;;;18.49;74.11;101875.00;6250554;22;20036;-83
2023/05/12 08:54:55;;;;;;;13.25;11.00;;;;;;;18.77;72.97;101877.41;6247507;22;20131;-80
2023/05/12 08:57:22;;;;;;;11.50;10.32;;;;;;;18.76;72.01;101882.06;6248864;22;20403;-80
2023/05/12 08:59:53;;;;;;;12.27;10.70;;;;;;;18.79;72.58;101883.81;6250016;22;20016;-79
2023/05/12 09:02:23;;;;;;;11.97;10.43;;;;;;;18.91;71.67;101890.09;6249930;22;20020;-80
2023/05/12 09:04:51;;;;;;;10.35;9.45;;;;;;;18.99;70.83;101886.53;6250334;22;20027;-82
2023/05/12 09:07:18;;;;;;;10.50;9.60;;;;;;;19.04;70.81;101887.09;6248157;22;20450;-80
2023/05/12 09:09:51;;;;;;;11.60;10.40;;;;;;;19.38;69.04;101891.69;6248876;22;20017;-80
2023/05/12 09:12:18;;;;;;;10.25;9.35;;;;;;;19.79;66.90;101894.38;6249830;22;20067;-81
2023/05/12 09:14:50;;;;;;;11.73;9.20;;;;;;;19.90;67.82;101887.13;6223018;22;20114;-81
2023/05/12 09:17:17;;;;;;;10.05;9.15;;;;;;;19.71;67.60;101894.06;6248255;22;20017;-80
2023/05/12 09:19:44;;;;;;;9.82;8.82;;;;;;;19.59;66.48;101895.16;6250356;22;20017;-79
2023/05/12 09:22:13;;;;;;;9.05;8.25;;;;;;;19.55;67.37;101903.47;6249563;22;20076;-82
2023/05/12 09:24:40;;;;;;;8.77;8.07;;;;;;;19.51;65.30;101902.94;6246946;22;20497;-81
2023/05/12 09:27:07;;;;;;;8.23;7.65;;;;;;;19.48;65.36;101901.16;6248030;22;20021;-83
2023/05/12 09:29:33;;;;;;;8.45;7.75;;;;;;;19.50;65.77;101896.00;6223522;22;20421;-82
2023/05/12 09:32:17;;;;;;;8.00;7.40;;;;;;;19.61;65.47;101898.09;6226731;22;20024;-82
2023/05/12 09:34:43;;;;;;;7.45;6.72;;;;;;;19.64;62.45;101903.31;6248464;22;20112;-82
2023/05/12 09:37:10;;;;;;;6.60;6.10;;;;;;;19.46;62.58;101906.28;6249280;22;20488;-80
2023/05/12 09:39:39;;;;;;;6.22;5.57;;;;;;;19.51;63.92;101902.94;6248632;22;20460;-80
2023/05/12 09:42:11;;;;;;;6.40;5.90;;;;;;;19.54;62.95;101906.66;6249962;22;20029;-82
2023/05/12 09:44:38;;;;;;;6.53;6.05;;;;;;;19.48;63.05;101903.84;6250470;22;20021;-86
2023/05/12 09:47:06;;;;;;;7.28;6.68;;;;;;;19.44;63.03;101914.09;6247887;22;20024;-79
2023/05/12 09:49:32;;;;;;;6.80;6.30;;;;;;;19.38;63.39;101916.00;6250231;22;20017;-80
2023/05/12 09:51:59;;;;;;;6.68;6.22;;;;;;;19.41;64.04;101919.72;6249009;22;20524;-80
2023/05/12 09:54:27;;;;;;;7.13;6.43;;;;;;;19.56;64.19;101918.47;6249801;22;20021;-80
2023/05/12 09:56:58;;;;;;;7.60;6.20;;;;;;;20.02;62.77;101925.78;6249957;22;20079;-80
2023/05/12 09:59:33;;;;;;;7.43;6.72;;;;;;;20.75;62.57;101923.75;6250203;22;20024;-80
2023/05/12 10:02:01;;;;;;;7.07;6.45;;;;;;;21.32;61.64;101920.88;6249622;22;20013;-81
2023/05/12 10:04:38;;;;;;;6.60;6.15;;;;;;;21.43;59.04;101920.19;6222538;22;20048;-79
2023/05/12 10:07:13;;;;;;;6.88;5.82;;;;;;;21.30;58.07;101913.22;6247358;22;20439;-78
2023/05/12 10:09:41;;;;;;;6.88;5.68;;;;;;;21.19;57.41;101921.25;6247829;22;20319;-78
2023/05/12 10:12:09;;;;;;;6.50;6.10;;;;;;;21.21;57.25;101921.56;6250091;22;20081;-81
2023/05/12 10:14:39;;;;;;;5.28;4.97;;;;;;;21.27;56.70;101919.63;6251780;22;20421;-83
2023/05/12 10:17:08;;;;;;;5.88;5.30;;;;;;;21.29;56.61;101914.47;6249354;22;20017;-81
2023/05/12 10:19:35;;;;;;;9.32;5.45;;;;;;;21.29;55.41;101919.13;6249688;22;20517;-81
2023/05/12 10:22:02;;;;;;;5.72;5.28;;;;;;;21.32;56.44;101920.13;6248489;22;20020;-85
2023/05/12 10:24:29;;;;;;;5.75;5.25;;;;;;;21.19;56.49;101915.84;6249874;22;20016;-83
2023/05/12 10:26:56;;;;;;;9.55;5.38;;;;;;;21.23;56.25;101912.94;6251007;22;20012;-81
2023/05/12 10:29:31;;;;;;;5.93;5.38;;;;;;;21.21;56.09;101918.09;6250080;22;20013;-82
2023/05/12 10:32:00;;;;;;;5.85;4.95;;;;;;;21.24;55.66;101917.13;6251095;22;20477;-83
2023/05/12 10:34:32;;;;;;;4.88;4.57;;;;;;;21.61;55.37;101914.31;6251345;22;20021;-82
2023/05/12 10:36:59;;;;;;;6.18;4.88;;;;;;;21.86;54.55;101921.53;6250333;22;20017;-78
2023/05/12 10:39:31;;;;;;;4.90;4.60;;;;;;;22.07;54.93;101918.63;6251259;22;20016;-80
2023/05/12 10:42:04;;;;;;;5.15;4.75;;;;;;;22.36;54.13;101914.72;6250793;22;20071;-81
2023/05/12 10:44:31;;;;;;;5.15;4.80;;;;;;;22.35;52.20;101911.25;6251390;22;20027;-83
2023/05/12 10:47:01;;;;;;;5.10;4.70;;;;;;;22.58;52.08;101915.44;6249233;22;20017;-81
2023/05/12 10:49:38;;;;;;;4.28;4.07;;;;;;;22.58;52.40;101922.81;6250625;22;20013;-82
2023/05/12 10:52:06;;;;;;;4.28;3.63;;;;;;;22.69;51.24;101909.25;6250900;22;20012;-82
2023/05/12 10:54:43;;;;;;;4.05;3.75;;;;;;;22.85;52.29;101910.47;6223929;22;20047;-83
2023/05/12 10:57:15;;;;;;;5.10;4.70;;;;;;;22.50;50.87;101919.13;6250803;22;20095;-82
2023/05/12 10:59:55;;;;;;;4.35;3.95;;;;;;;22.18;53.01;101919.38;6251488;22;20080;-83
2023/05/12 11:02:29;;;;;;;4.10;3.90;;;;;;;22.02;52.00;101919.34;6249607;22;20506;-83
2023/05/12 11:05:05;;;;;;;4.10;3.83;;;;;;;22.12;53.19;101926.03;6250323;22;20100;-83
2023/05/12 11:07:33;;;;;;;6.75;3.40;;;;;;;22.52;51.78;101924.81;6248731;22;20008;-83
2023/05/12 11:10:03;;;;;;;3.28;3.08;;;;;;;22.74;50.51;101921.34;6246134;22;20020;-82
2023/05/12 11:12:32;;;;;;;3.60;3.40;;;;;;;23.04;49.24;101918.81;6249133;22;20016;-82
2023/05/12 11:15:00;;;;;;;4.03;3.65;;;;;;;23.27;48.38;101926.38;6248720;22;20450;-82